We konden geen weer-waarchuwingen ophalen. Ga rechtstreeks naar de Meteoalarm site : www.meteoalarm.eu en controleer daar .


Onweer radar Meer informatie blitzortung!


Regen radar Meer informatie rain snow radar


Andere websites:

Onze vorige site

Leuven Template


METAR rapporten vliegvelden

   
EHGG - Leeuwarden
Gewijzigd: 26-02-2024 01:55
Gedeeltelijk bewolkt  
Gedeeltelijk bewolkt  
   Wind: NO 13 km/h
Wind: NO 13 km/h
Temperatuur: 3°C
Voelt als: -1°C
Dauwpunt: 3°C
Vochtigheid: 100%
Barometer: 1002 hPa
Bewolking: Gedeeltelijk bewolkt
Zicht: 7 km
Bewolking: Gedeeltelijk bewolkt
EHGG 260055Z AUTO 04007KT 010V070 7000 NSC 03/03 Q1002
EHGG - Terschelling
Gewijzigd: 26-02-2024 01:55
Gedeeltelijk bewolkt  
Gedeeltelijk bewolkt  
   Wind: NO 13 km/h
Wind: NO 13 km/h
Temperatuur: 3°C
Voelt als: -1°C
Dauwpunt: 3°C
Vochtigheid: 100%
Barometer: 1002 hPa
Bewolking: Gedeeltelijk bewolkt
Zicht: 7 km
Bewolking: Gedeeltelijk bewolkt
EHGG 260055Z AUTO 04007KT 010V070 7000 NSC 03/03 Q1002
EHAM - Amsterdam
Gewijzigd: 26-02-2024 01:55
Helder  
Helder  
   Wind: ONO 20.4 km/h
Wind: ONO 20.4 km/h
Temperatuur: 6°C
Voelt als: 2°C
Dauwpunt: 4°C
Vochtigheid: 87%
Barometer: 1000 hPa
Zicht: meer dan 10 km
Bewolking: Helder
EHAM 260055Z 06011KT 020V080 CAVOK 06/04 Q1000 NOSIG
EHBK - Maastricht
Gewijzigd: 26-02-2024 01:55
Wat regen mogelijk, Bewolking  
Wat regen mogelijk, Bewolking  
   Wind: ONO 22.2 km/h
Wind: ONO 22.2 km/h
Temperatuur: 5°C
Voelt als: 1°C
Dauwpunt: 4°C
Vochtigheid: 93%
Barometer: 996 hPa
Bewolking: Bewolking
Zicht: meer dan 10 km
Bewolking: Licht bewolkt 3200 ft,
Grotendeels bewolkt 3800 ft,
Bewolking 4200 ft
EHBK 260055Z AUTO 07012KT 050V110 9999 -RA FEW032 BKN038 OVC042 05/04 Q0996 REDZRA
  

Script ontwikkeld door  Saratoga-weather.org Aangepast voor de template door  Weerstation Leuven

U vindt ons ook hier:

UK Metoffice

European Weather Network

Weather Underground

AWEKAS

Apparatuur in gebruik:

Weerstation
Davis VP2

Weerprogramma
Cumulus

Davis VP2

Cumulus